sensor_id;sensor_type;location;lat;lon;timestamp;P1;durP1;ratioP1;P2;durP2;ratioP2
44822;SDS011;51097;51.984;5.650;2023-04-26T00:01:57;7.63;;;5.28;;
44822;SDS011;51097;51.984;5.650;2023-04-26T00:04:24;8.75;;;5.75;;
44822;SDS011;51097;51.984;5.650;2023-04-26T00:06:52;9.48;;;5.88;;
44822;SDS011;51097;51.984;5.650;2023-04-26T00:09:18;12.65;;;6.60;;
44822;SDS011;51097;51.984;5.650;2023-04-26T00:11:44;9.27;;;5.90;;
44822;SDS011;51097;51.984;5.650;2023-04-26T00:14:10;13.18;;;6.35;;
44822;SDS011;51097;51.984;5.650;2023-04-26T00:16:35;9.30;;;5.07;;
44822;SDS011;51097;51.984;5.650;2023-04-26T00:19:01;10.65;;;6.45;;
44822;SDS011;51097;51.984;5.650;2023-04-26T00:21:27;11.05;;;5.10;;
44822;SDS011;51097;51.984;5.650;2023-04-26T00:23:53;10.00;;;5.43;;
44822;SDS011;51097;51.984;5.650;2023-04-26T00:26:18;8.88;;;5.25;;
44822;SDS011;51097;51.984;5.650;2023-04-26T00:28:44;7.45;;;5.55;;
44822;SDS011;51097;51.984;5.650;2023-04-26T00:31:16;10.43;;;6.25;;
44822;SDS011;51097;51.984;5.650;2023-04-26T00:33:42;9.88;;;5.78;;
44822;SDS011;51097;51.984;5.650;2023-04-26T00:36:08;10.05;;;7.45;;
44822;SDS011;51097;51.984;5.650;2023-04-26T00:38:34;8.02;;;5.45;;
44822;SDS011;51097;51.984;5.650;2023-04-26T00:41:00;9.30;;;6.55;;
44822;SDS011;51097;51.984;5.650;2023-04-26T00:43:25;9.10;;;6.15;;
44822;SDS011;51097;51.984;5.650;2023-04-26T00:45:51;9.95;;;6.88;;
44822;SDS011;51097;51.984;5.650;2023-04-26T00:48:16;11.98;;;6.72;;
44822;SDS011;51097;51.984;5.650;2023-04-26T00:50:42;9.65;;;5.65;;
44822;SDS011;51097;51.984;5.650;2023-04-26T00:53:08;14.38;;;6.65;;
44822;SDS011;51097;51.984;5.650;2023-04-26T00:55:38;9.52;;;5.35;;
44822;SDS011;51097;51.984;5.650;2023-04-26T00:58:04;10.18;;;5.57;;
44822;SDS011;51097;51.984;5.650;2023-04-26T01:00:30;10.50;;;5.60;;
44822;SDS011;51097;51.984;5.650;2023-04-26T01:02:56;11.18;;;5.97;;
44822;SDS011;51097;51.984;5.650;2023-04-26T01:05:21;14.00;;;5.57;;
44822;SDS011;51097;51.984;5.650;2023-04-26T01:07:47;9.15;;;5.50;;
44822;SDS011;51097;51.984;5.650;2023-04-26T01:10:12;11.93;;;5.95;;
44822;SDS011;51097;51.984;5.650;2023-04-26T01:12:38;9.30;;;6.00;;
44822;SDS011;51097;51.984;5.650;2023-04-26T01:15:04;12.07;;;6.10;;
44822;SDS011;51097;51.984;5.650;2023-04-26T01:17:30;10.55;;;6.00;;
44822;SDS011;51097;51.984;5.650;2023-04-26T01:19:56;10.48;;;6.03;;
44822;SDS011;51097;51.984;5.650;2023-04-26T01:22:21;11.48;;;5.90;;
44822;SDS011;51097;51.984;5.650;2023-04-26T01:24:47;8.23;;;4.95;;
44822;SDS011;51097;51.984;5.650;2023-04-26T01:27:15;8.27;;;5.70;;
44822;SDS011;51097;51.984;5.650;2023-04-26T01:29:41;9.02;;;5.80;;
44822;SDS011;51097;51.984;5.650;2023-04-26T01:32:07;9.65;;;6.07;;
44822;SDS011;51097;51.984;5.650;2023-04-26T01:34:32;12.02;;;5.82;;
44822;SDS011;51097;51.984;5.650;2023-04-26T01:36:58;16.90;;;6.97;;
44822;SDS011;51097;51.984;5.650;2023-04-26T01:39:27;11.75;;;6.10;;
44822;SDS011;51097;51.984;5.650;2023-04-26T01:41:53;10.93;;;5.95;;
44822;SDS011;51097;51.984;5.650;2023-04-26T01:44:22;8.15;;;6.60;;
44822;SDS011;51097;51.984;5.650;2023-04-26T01:46:48;10.65;;;6.20;;
44822;SDS011;51097;51.984;5.650;2023-04-26T01:49:13;17.70;;;6.15;;
44822;SDS011;51097;51.984;5.650;2023-04-26T01:51:39;9.60;;;6.25;;
44822;SDS011;51097;51.984;5.650;2023-04-26T01:54:04;9.20;;;5.97;;
44822;SDS011;51097;51.984;5.650;2023-04-26T01:56:30;16.08;;;6.45;;
44822;SDS011;51097;51.984;5.650;2023-04-26T01:58:56;13.82;;;6.53;;
44822;SDS011;51097;51.984;5.650;2023-04-26T02:01:23;18.73;;;7.20;;
44822;SDS011;51097;51.984;5.650;2023-04-26T02:03:48;18.02;;;7.38;;
44822;SDS011;51097;51.984;5.650;2023-04-26T02:06:14;9.55;;;6.50;;
44822;SDS011;51097;51.984;5.650;2023-04-26T02:08:40;11.18;;;7.30;;
44822;SDS011;51097;51.984;5.650;2023-04-26T02:11:05;11.00;;;6.55;;
44822;SDS011;51097;51.984;5.650;2023-04-26T02:13:31;17.98;;;8.23;;
44822;SDS011;51097;51.984;5.650;2023-04-26T02:15:57;8.25;;;6.95;;
44822;SDS011;51097;51.984;5.650;2023-04-26T02:18:23;13.80;;;7.20;;
44822;SDS011;51097;51.984;5.650;2023-04-26T02:20:48;12.63;;;7.68;;
44822;SDS011;51097;51.984;5.650;2023-04-26T02:23:14;13.50;;;8.25;;
44822;SDS011;51097;51.984;5.650;2023-04-26T02:25:40;21.30;;;8.05;;
44822;SDS011;51097;51.984;5.650;2023-04-26T02:28:06;13.80;;;7.78;;
44822;SDS011;51097;51.984;5.650;2023-04-26T02:30:32;13.02;;;7.45;;
44822;SDS011;51097;51.984;5.650;2023-04-26T02:32:57;19.33;;;7.43;;
44822;SDS011;51097;51.984;5.650;2023-04-26T02:35:23;12.82;;;7.03;;
44822;SDS011;51097;51.984;5.650;2023-04-26T02:37:49;13.30;;;7.90;;
44822;SDS011;51097;51.984;5.650;2023-04-26T02:40:19;11.23;;;7.30;;
44822;SDS011;51097;51.984;5.650;2023-04-26T02:42:45;11.63;;;6.95;;
44822;SDS011;51097;51.984;5.650;2023-04-26T02:45:12;15.75;;;7.93;;
44822;SDS011;51097;51.984;5.650;2023-04-26T02:47:37;15.50;;;8.23;;
44822;SDS011;51097;51.984;5.650;2023-04-26T02:50:04;14.95;;;7.97;;
44822;SDS011;51097;51.984;5.650;2023-04-26T02:52:31;18.27;;;7.78;;
44822;SDS011;51097;51.984;5.650;2023-04-26T02:54:57;12.68;;;8.25;;
44822;SDS011;51097;51.984;5.650;2023-04-26T02:57:23;16.92;;;9.02;;
44822;SDS011;51097;51.984;5.650;2023-04-26T02:59:48;18.00;;;8.25;;
44822;SDS011;51097;51.984;5.650;2023-04-26T03:02:14;14.48;;;8.43;;
44822;SDS011;51097;51.984;5.650;2023-04-26T03:04:40;19.10;;;7.85;;
44822;SDS011;51097;51.984;5.650;2023-04-26T03:07:06;13.25;;;8.02;;
44822;SDS011;51097;51.984;5.650;2023-04-26T03:09:32;14.05;;;8.10;;
44822;SDS011;51097;51.984;5.650;2023-04-26T03:11:58;11.48;;;7.47;;
44822;SDS011;51097;51.984;5.650;2023-04-26T03:14:24;17.90;;;9.10;;
44822;SDS011;51097;51.984;5.650;2023-04-26T03:16:51;13.45;;;8.98;;
44822;SDS011;51097;51.984;5.650;2023-04-26T03:19:17;14.93;;;8.68;;
44822;SDS011;51097;51.984;5.650;2023-04-26T03:21:43;14.73;;;8.50;;
44822;SDS011;51097;51.984;5.650;2023-04-26T03:24:08;17.17;;;8.43;;
44822;SDS011;51097;51.984;5.650;2023-04-26T03:26:34;14.30;;;8.70;;
44822;SDS011;51097;51.984;5.650;2023-04-26T03:28:59;18.05;;;9.20;;
44822;SDS011;51097;51.984;5.650;2023-04-26T03:31:26;14.90;;;8.73;;
44822;SDS011;51097;51.984;5.650;2023-04-26T03:33:52;13.88;;;8.73;;
44822;SDS011;51097;51.984;5.650;2023-04-26T03:36:17;15.63;;;9.35;;
44822;SDS011;51097;51.984;5.650;2023-04-26T03:38:43;17.10;;;8.88;;
44822;SDS011;51097;51.984;5.650;2023-04-26T03:41:08;19.23;;;8.82;;
44822;SDS011;51097;51.984;5.650;2023-04-26T03:43:34;17.13;;;9.13;;
44822;SDS011;51097;51.984;5.650;2023-04-26T03:46:00;18.80;;;9.20;;
44822;SDS011;51097;51.984;5.650;2023-04-26T03:48:25;16.73;;;8.70;;
44822;SDS011;51097;51.984;5.650;2023-04-26T03:50:51;19.67;;;10.13;;
44822;SDS011;51097;51.984;5.650;2023-04-26T03:53:17;16.48;;;9.48;;
44822;SDS011;51097;51.984;5.650;2023-04-26T03:55:43;22.38;;;10.50;;
44822;SDS011;51097;51.984;5.650;2023-04-26T03:58:08;17.92;;;10.50;;
44822;SDS011;51097;51.984;5.650;2023-04-26T04:00:37;19.50;;;10.00;;
44822;SDS011;51097;51.984;5.650;2023-04-26T04:03:04;19.13;;;9.57;;
44822;SDS011;51097;51.984;5.650;2023-04-26T04:05:30;18.75;;;9.77;;
44822;SDS011;51097;51.984;5.650;2023-04-26T04:07:56;14.93;;;9.20;;
44822;SDS011;51097;51.984;5.650;2023-04-26T04:10:22;15.52;;;9.00;;
44822;SDS011;51097;51.984;5.650;2023-04-26T04:12:51;17.15;;;10.32;;
44822;SDS011;51097;51.984;5.650;2023-04-26T04:15:18;17.08;;;10.13;;
44822;SDS011;51097;51.984;5.650;2023-04-26T04:17:44;18.92;;;9.07;;
44822;SDS011;51097;51.984;5.650;2023-04-26T04:20:10;17.95;;;9.05;;
44822;SDS011;51097;51.984;5.650;2023-04-26T04:22:36;16.38;;;9.15;;
44822;SDS011;51097;51.984;5.650;2023-04-26T04:25:03;22.55;;;10.90;;
44822;SDS011;51097;51.984;5.650;2023-04-26T04:27:30;18.67;;;9.50;;
44822;SDS011;51097;51.984;5.650;2023-04-26T04:29:56;19.45;;;10.40;;
44822;SDS011;51097;51.984;5.650;2023-04-26T04:32:22;17.40;;;9.93;;
44822;SDS011;51097;51.984;5.650;2023-04-26T04:34:47;20.05;;;10.07;;
44822;SDS011;51097;51.984;5.650;2023-04-26T04:37:15;18.38;;;10.30;;
44822;SDS011;51097;51.984;5.650;2023-04-26T04:39:41;19.42;;;10.70;;
44822;SDS011;51097;51.984;5.650;2023-04-26T04:42:06;20.13;;;10.95;;
44822;SDS011;51097;51.984;5.650;2023-04-26T04:44:32;21.65;;;11.93;;
44822;SDS011;51097;51.984;5.650;2023-04-26T04:46:58;19.58;;;10.85;;
44822;SDS011;51097;51.984;5.650;2023-04-26T04:49:23;23.58;;;11.98;;
44822;SDS011;51097;51.984;5.650;2023-04-26T04:51:49;19.75;;;11.43;;
44822;SDS011;51097;51.984;5.650;2023-04-26T04:54:15;21.55;;;11.98;;
44822;SDS011;51097;51.984;5.650;2023-04-26T04:56:42;17.85;;;10.85;;
44822;SDS011;51097;51.984;5.650;2023-04-26T04:59:08;21.00;;;11.95;;
44822;SDS011;51097;51.984;5.650;2023-04-26T05:01:34;23.13;;;11.30;;
44822;SDS011;51097;51.984;5.650;2023-04-26T05:04:01;20.42;;;11.18;;
44822;SDS011;51097;51.984;5.650;2023-04-26T05:06:27;21.58;;;11.18;;
44822;SDS011;51097;51.984;5.650;2023-04-26T05:08:54;22.13;;;11.63;;
44822;SDS011;51097;51.984;5.650;2023-04-26T05:11:20;21.88;;;11.63;;
44822;SDS011;51097;51.984;5.650;2023-04-26T05:13:46;17.67;;;10.60;;
44822;SDS011;51097;51.984;5.650;2023-04-26T05:16:13;22.48;;;12.00;;
44822;SDS011;51097;51.984;5.650;2023-04-26T05:18:38;17.67;;;10.95;;
44822;SDS011;51097;51.984;5.650;2023-04-26T05:21:04;22.38;;;11.07;;
44822;SDS011;51097;51.984;5.650;2023-04-26T05:23:30;26.20;;;12.38;;
44822;SDS011;51097;51.984;5.650;2023-04-26T05:25:55;18.58;;;11.68;;
44822;SDS011;51097;51.984;5.650;2023-04-26T05:28:21;21.65;;;10.50;;
44822;SDS011;51097;51.984;5.650;2023-04-26T05:30:47;19.75;;;11.18;;
44822;SDS011;51097;51.984;5.650;2023-04-26T05:33:13;23.17;;;11.80;;
44822;SDS011;51097;51.984;5.650;2023-04-26T05:35:39;23.17;;;12.93;;
44822;SDS011;51097;51.984;5.650;2023-04-26T05:38:05;20.10;;;11.50;;
44822;SDS011;51097;51.984;5.650;2023-04-26T05:40:31;20.52;;;11.68;;
44822;SDS011;51097;51.984;5.650;2023-04-26T05:42:56;20.88;;;11.95;;
44822;SDS011;51097;51.984;5.650;2023-04-26T05:45:22;24.67;;;12.18;;
44822;SDS011;51097;51.984;5.650;2023-04-26T05:47:48;17.45;;;9.98;;
44822;SDS011;51097;51.984;5.650;2023-04-26T05:50:15;24.58;;;12.30;;
44822;SDS011;51097;51.984;5.650;2023-04-26T05:52:40;18.27;;;9.80;;
44822;SDS011;51097;51.984;5.650;2023-04-26T05:55:06;27.27;;;12.25;;
44822;SDS011;51097;51.984;5.650;2023-04-26T05:57:32;19.98;;;9.98;;
44822;SDS011;51097;51.984;5.650;2023-04-26T05:59:58;21.10;;;10.18;;
44822;SDS011;51097;51.984;5.650;2023-04-26T06:02:24;19.27;;;8.73;;
44822;SDS011;51097;51.984;5.650;2023-04-26T06:04:50;17.27;;;9.13;;
44822;SDS011;51097;51.984;5.650;2023-04-26T06:07:16;19.00;;;9.30;;
44822;SDS011;51097;51.984;5.650;2023-04-26T06:09:41;21.00;;;9.20;;
44822;SDS011;51097;51.984;5.650;2023-04-26T06:12:07;21.75;;;10.10;;
44822;SDS011;51097;51.984;5.650;2023-04-26T06:14:33;16.50;;;9.73;;
44822;SDS011;51097;51.984;5.650;2023-04-26T06:16:58;18.10;;;9.63;;
44822;SDS011;51097;51.984;5.650;2023-04-26T06:19:24;14.38;;;8.43;;
44822;SDS011;51097;51.984;5.650;2023-04-26T06:21:50;14.00;;;7.80;;
44822;SDS011;51097;51.984;5.650;2023-04-26T06:24:19;16.67;;;7.93;;
44822;SDS011;51097;51.984;5.650;2023-04-26T06:26:45;15.82;;;7.53;;
44822;SDS011;51097;51.984;5.650;2023-04-26T06:29:10;14.05;;;7.25;;
44822;SDS011;51097;51.984;5.650;2023-04-26T06:31:36;13.93;;;8.00;;
44822;SDS011;51097;51.984;5.650;2023-04-26T06:34:01;13.18;;;7.00;;
44822;SDS011;51097;51.984;5.650;2023-04-26T06:36:27;18.42;;;7.78;;
44822;SDS011;51097;51.984;5.650;2023-04-26T06:38:53;19.92;;;10.50;;
44822;SDS011;51097;51.984;5.650;2023-04-26T06:41:18;21.60;;;11.23;;
44822;SDS011;51097;51.984;5.650;2023-04-26T06:43:46;20.98;;;10.40;;
44822;SDS011;51097;51.984;5.650;2023-04-26T06:46:11;20.27;;;13.55;;
44822;SDS011;51097;51.984;5.650;2023-04-26T06:48:37;20.42;;;13.23;;
44822;SDS011;51097;51.984;5.650;2023-04-26T06:51:05;22.45;;;13.50;;
44822;SDS011;51097;51.984;5.650;2023-04-26T06:53:31;16.08;;;12.13;;
44822;SDS011;51097;51.984;5.650;2023-04-26T06:55:57;16.10;;;9.80;;
44822;SDS011;51097;51.984;5.650;2023-04-26T06:58:23;14.30;;;8.35;;
44822;SDS011;51097;51.984;5.650;2023-04-26T07:00:48;13.35;;;7.40;;
44822;SDS011;51097;51.984;5.650;2023-04-26T07:03:14;10.23;;;6.93;;
44822;SDS011;51097;51.984;5.650;2023-04-26T07:05:39;13.35;;;6.90;;
44822;SDS011;51097;51.984;5.650;2023-04-26T07:08:05;14.25;;;8.15;;
44822;SDS011;51097;51.984;5.650;2023-04-26T07:10:31;14.88;;;6.63;;
44822;SDS011;51097;51.984;5.650;2023-04-26T07:12:56;12.52;;;6.50;;
44822;SDS011;51097;51.984;5.650;2023-04-26T07:15:22;10.82;;;5.50;;
44822;SDS011;51097;51.984;5.650;2023-04-26T07:17:47;9.65;;;5.80;;
44822;SDS011;51097;51.984;5.650;2023-04-26T07:20:13;9.65;;;5.45;;
44822;SDS011;51097;51.984;5.650;2023-04-26T07:25:09;7.72;;;5.00;;
44822;SDS011;51097;51.984;5.650;2023-04-26T07:27:35;21.08;;;5.45;;
44822;SDS011;51097;51.984;5.650;2023-04-26T07:30:00;12.88;;;5.28;;
44822;SDS011;51097;51.984;5.650;2023-04-26T07:32:26;8.63;;;4.43;;
44822;SDS011;51097;51.984;5.650;2023-04-26T07:34:51;12.23;;;5.35;;
44822;SDS011;51097;51.984;5.650;2023-04-26T07:37:17;8.05;;;4.10;;
44822;SDS011;51097;51.984;5.650;2023-04-26T07:39:43;12.30;;;6.03;;
44822;SDS011;51097;51.984;5.650;2023-04-26T07:42:08;14.77;;;5.60;;
44822;SDS011;51097;51.984;5.650;2023-04-26T07:44:34;10.50;;;4.68;;
44822;SDS011;51097;51.984;5.650;2023-04-26T07:46:59;10.00;;;4.75;;
44822;SDS011;51097;51.984;5.650;2023-04-26T07:49:25;9.43;;;3.80;;
44822;SDS011;51097;51.984;5.650;2023-04-26T07:51:50;8.25;;;3.83;;
44822;SDS011;51097;51.984;5.650;2023-04-26T07:54:17;6.68;;;4.78;;
44822;SDS011;51097;51.984;5.650;2023-04-26T07:56:43;10.30;;;5.20;;
44822;SDS011;51097;51.984;5.650;2023-04-26T07:59:08;7.18;;;4.97;;
44822;SDS011;51097;51.984;5.650;2023-04-26T08:01:34;10.10;;;4.20;;
44822;SDS011;51097;51.984;5.650;2023-04-26T08:03:59;6.25;;;3.33;;
44822;SDS011;51097;51.984;5.650;2023-04-26T08:06:25;7.43;;;3.50;;
44822;SDS011;51097;51.984;5.650;2023-04-26T08:08:51;7.30;;;4.07;;
44822;SDS011;51097;51.984;5.650;2023-04-26T08:11:17;9.10;;;3.42;;
44822;SDS011;51097;51.984;5.650;2023-04-26T08:13:43;9.73;;;3.92;;
44822;SDS011;51097;51.984;5.650;2023-04-26T08:16:09;6.50;;;3.80;;
44822;SDS011;51097;51.984;5.650;2023-04-26T08:18:34;6.63;;;3.17;;
44822;SDS011;51097;51.984;5.650;2023-04-26T08:21:00;6.70;;;3.25;;
44822;SDS011;51097;51.984;5.650;2023-04-26T08:23:26;6.72;;;3.88;;
44822;SDS011;51097;51.984;5.650;2023-04-26T08:25:52;7.95;;;2.30;;
44822;SDS011;51097;51.984;5.650;2023-04-26T08:28:18;6.55;;;2.03;;
44822;SDS011;51097;51.984;5.650;2023-04-26T08:30:43;4.70;;;2.03;;
44822;SDS011;51097;51.984;5.650;2023-04-26T08:33:09;4.18;;;2.88;;
44822;SDS011;51097;51.984;5.650;2023-04-26T08:35:34;4.63;;;2.60;;
44822;SDS011;51097;51.984;5.650;2023-04-26T08:38:00;3.60;;;1.73;;
44822;SDS011;51097;51.984;5.650;2023-04-26T08:40:26;9.10;;;2.60;;
44822;SDS011;51097;51.984;5.650;2023-04-26T08:42:51;6.78;;;2.78;;
44822;SDS011;51097;51.984;5.650;2023-04-26T08:45:18;6.80;;;3.05;;
44822;SDS011;51097;51.984;5.650;2023-04-26T08:47:57;8.80;;;3.38;;
44822;SDS011;51097;51.984;5.650;2023-04-26T08:50:30;5.18;;;3.03;;
44822;SDS011;51097;51.984;5.650;2023-04-26T08:52:58;6.80;;;2.83;;
44822;SDS011;51097;51.984;5.650;2023-04-26T08:55:23;7.28;;;4.20;;
44822;SDS011;51097;51.984;5.650;2023-04-26T08:57:50;6.35;;;3.22;;
44822;SDS011;51097;51.984;5.650;2023-04-26T09:00:16;9.00;;;4.20;;
44822;SDS011;51097;51.984;5.650;2023-04-26T09:02:47;6.05;;;3.03;;
44822;SDS011;51097;51.984;5.650;2023-04-26T09:05:13;8.70;;;3.53;;
44822;SDS011;51097;51.984;5.650;2023-04-26T09:10:07;5.43;;;2.00;;
44822;SDS011;51097;51.984;5.650;2023-04-26T09:12:33;4.22;;;1.67;;
44822;SDS011;51097;51.984;5.650;2023-04-26T09:14:59;3.30;;;1.83;;
44822;SDS011;51097;51.984;5.650;2023-04-26T09:17:32;9.00;;;1.97;;
44822;SDS011;51097;51.984;5.650;2023-04-26T09:20:01;4.28;;;2.03;;
44822;SDS011;51097;51.984;5.650;2023-04-26T09:22:42;3.42;;;2.22;;
44822;SDS011;51097;51.984;5.650;2023-04-26T09:25:07;9.40;;;3.60;;
44822;SDS011;51097;51.984;5.650;2023-04-26T09:27:37;4.63;;;2.58;;
44822;SDS011;51097;51.984;5.650;2023-04-26T09:30:08;6.13;;;2.75;;
44822;SDS011;51097;51.984;5.650;2023-04-26T09:35:24;9.93;;;2.38;;
44822;SDS011;51097;51.984;5.650;2023-04-26T09:40:19;4.10;;;2.88;;
44822;SDS011;51097;51.984;5.650;2023-04-26T09:42:45;3.47;;;2.50;;
44822;SDS011;51097;51.984;5.650;2023-04-26T09:45:11;4.60;;;2.50;;
44822;SDS011;51097;51.984;5.650;2023-04-26T09:47:37;8.80;;;3.10;;
44822;SDS011;51097;51.984;5.650;2023-04-26T09:50:02;4.20;;;2.13;;
44822;SDS011;51097;51.984;5.650;2023-04-26T09:52:28;3.22;;;1.88;;
44822;SDS011;51097;51.984;5.650;2023-04-26T09:54:54;3.38;;;1.83;;
44822;SDS011;51097;51.984;5.650;2023-04-26T09:57:20;7.40;;;2.38;;
44822;SDS011;51097;51.984;5.650;2023-04-26T09:59:50;3.08;;;2.10;;
44822;SDS011;51097;51.984;5.650;2023-04-26T10:04:44;7.22;;;2.22;;
44822;SDS011;51097;51.984;5.650;2023-04-26T10:07:12;5.63;;;1.88;;
44822;SDS011;51097;51.984;5.650;2023-04-26T10:09:39;7.90;;;2.40;;
44822;SDS011;51097;51.984;5.650;2023-04-26T10:12:05;5.43;;;2.20;;
44822;SDS011;51097;51.984;5.650;2023-04-26T10:14:33;4.60;;;2.13;;
44822;SDS011;51097;51.984;5.650;2023-04-26T10:16:59;6.70;;;2.15;;
44822;SDS011;51097;51.984;5.650;2023-04-26T10:19:27;3.10;;;1.75;;
44822;SDS011;51097;51.984;5.650;2023-04-26T10:21:53;5.57;;;2.30;;
44822;SDS011;51097;51.984;5.650;2023-04-26T10:24:23;7.13;;;2.22;;
44822;SDS011;51097;51.984;5.650;2023-04-26T10:26:53;5.60;;;2.00;;
44822;SDS011;51097;51.984;5.650;2023-04-26T10:29:21;4.70;;;1.88;;
44822;SDS011;51097;51.984;5.650;2023-04-26T10:34:26;7.57;;;2.20;;
44822;SDS011;51097;51.984;5.650;2023-04-26T10:37:11;5.90;;;2.30;;
44822;SDS011;51097;51.984;5.650;2023-04-26T10:39:38;6.55;;;2.15;;
44822;SDS011;51097;51.984;5.650;2023-04-26T10:44:47;4.82;;;2.30;;
44822;SDS011;51097;51.984;5.650;2023-04-26T10:49:48;6.72;;;2.60;;
44822;SDS011;51097;51.984;5.650;2023-04-26T10:52:15;5.22;;;2.75;;
44822;SDS011;51097;51.984;5.650;2023-04-26T10:54:57;4.82;;;2.38;;
44822;SDS011;51097;51.984;5.650;2023-04-26T11:00:14;6.40;;;2.63;;
44822;SDS011;51097;51.984;5.650;2023-04-26T11:10:39;6.10;;;2.90;;
44822;SDS011;51097;51.984;5.650;2023-04-26T11:13:05;6.25;;;2.90;;
44822;SDS011;51097;51.984;5.650;2023-04-26T11:15:31;7.80;;;3.28;;
44822;SDS011;51097;51.984;5.650;2023-04-26T11:17:57;5.32;;;2.80;;
44822;SDS011;51097;51.984;5.650;2023-04-26T11:20:30;7.03;;;3.33;;
44822;SDS011;51097;51.984;5.650;2023-04-26T11:22:56;4.20;;;2.67;;
44822;SDS011;51097;51.984;5.650;2023-04-26T11:25:23;5.32;;;2.90;;
44822;SDS011;51097;51.984;5.650;2023-04-26T11:27:50;4.32;;;2.35;;
44822;SDS011;51097;51.984;5.650;2023-04-26T11:30:20;3.15;;;1.88;;
44822;SDS011;51097;51.984;5.650;2023-04-26T11:32:46;6.95;;;2.65;;
44822;SDS011;51097;51.984;5.650;2023-04-26T11:35:11;6.22;;;3.53;;
44822;SDS011;51097;51.984;5.650;2023-04-26T11:37:38;5.10;;;2.40;;
44822;SDS011;51097;51.984;5.650;2023-04-26T11:40:03;6.00;;;2.58;;
44822;SDS011;51097;51.984;5.650;2023-04-26T11:42:31;2.65;;;1.95;;
44822;SDS011;51097;51.984;5.650;2023-04-26T11:45:00;5.45;;;2.40;;
44822;SDS011;51097;51.984;5.650;2023-04-26T11:47:25;5.03;;;2.40;;
44822;SDS011;51097;51.984;5.650;2023-04-26T11:49:54;4.18;;;2.03;;
44822;SDS011;51097;51.984;5.650;2023-04-26T11:52:20;4.30;;;1.95;;
44822;SDS011;51097;51.984;5.650;2023-04-26T11:54:46;4.13;;;2.17;;
44822;SDS011;51097;51.984;5.650;2023-04-26T11:57:12;5.05;;;2.83;;
44822;SDS011;51097;51.984;5.650;2023-04-26T11:59:44;4.80;;;2.20;;
44822;SDS011;51097;51.984;5.650;2023-04-26T12:02:10;3.08;;;2.45;;
44822;SDS011;51097;51.984;5.650;2023-04-26T12:04:36;5.82;;;2.25;;
44822;SDS011;51097;51.984;5.650;2023-04-26T12:07:03;7.60;;;2.65;;
44822;SDS011;51097;51.984;5.650;2023-04-26T12:09:29;5.28;;;2.20;;
44822;SDS011;51097;51.984;5.650;2023-04-26T12:17:00;5.88;;;2.33;;
44822;SDS011;51097;51.984;5.650;2023-04-26T12:19:27;3.20;;;2.90;;
44822;SDS011;51097;51.984;5.650;2023-04-26T12:21:57;5.57;;;2.28;;
44822;SDS011;51097;51.984;5.650;2023-04-26T12:24:26;2.85;;;2.63;;
44822;SDS011;51097;51.984;5.650;2023-04-26T12:26:54;3.95;;;2.47;;
44822;SDS011;51097;51.984;5.650;2023-04-26T12:29:20;4.82;;;2.53;;
44822;SDS011;51097;51.984;5.650;2023-04-26T12:31:46;5.38;;;3.33;;
44822;SDS011;51097;51.984;5.650;2023-04-26T12:34:11;4.32;;;2.50;;
44822;SDS011;51097;51.984;5.650;2023-04-26T12:36:40;5.78;;;2.42;;
44822;SDS011;51097;51.984;5.650;2023-04-26T12:39:12;5.60;;;2.45;;
44822;SDS011;51097;51.984;5.650;2023-04-26T12:41:39;5.47;;;3.30;;
44822;SDS011;51097;51.984;5.650;2023-04-26T12:44:06;6.68;;;2.92;;
44822;SDS011;51097;51.984;5.650;2023-04-26T12:46:32;3.90;;;2.60;;
44822;SDS011;51097;51.984;5.650;2023-04-26T12:48:58;6.80;;;3.10;;
44822;SDS011;51097;51.984;5.650;2023-04-26T12:51:24;6.05;;;2.45;;
44822;SDS011;51097;51.984;5.650;2023-04-26T12:53:50;7.25;;;3.05;;
44822;SDS011;51097;51.984;5.650;2023-04-26T12:56:16;6.72;;;2.55;;
44822;SDS011;51097;51.984;5.650;2023-04-26T12:58:42;4.65;;;2.85;;
44822;SDS011;51097;51.984;5.650;2023-04-26T13:01:08;5.93;;;3.08;;
44822;SDS011;51097;51.984;5.650;2023-04-26T13:03:33;6.22;;;2.65;;
44822;SDS011;51097;51.984;5.650;2023-04-26T13:06:00;6.57;;;3.08;;
44822;SDS011;51097;51.984;5.650;2023-04-26T13:08:26;5.32;;;3.03;;
44822;SDS011;51097;51.984;5.650;2023-04-26T13:10:52;4.40;;;2.50;;
44822;SDS011;51097;51.984;5.650;2023-04-26T13:13:18;7.20;;;2.75;;
44822;SDS011;51097;51.984;5.650;2023-04-26T13:15:43;4.50;;;2.47;;
44822;SDS011;51097;51.984;5.650;2023-04-26T13:18:09;8.07;;;1.92;;
44822;SDS011;51097;51.984;5.650;2023-04-26T13:20:35;4.35;;;2.50;;
44822;SDS011;51097;51.984;5.650;2023-04-26T13:23:02;5.22;;;2.45;;
44822;SDS011;51097;51.984;5.650;2023-04-26T13:25:28;7.47;;;2.50;;
44822;SDS011;51097;51.984;5.650;2023-04-26T13:27:53;5.30;;;1.95;;
44822;SDS011;51097;51.984;5.650;2023-04-26T13:30:19;6.32;;;1.88;;
44822;SDS011;51097;51.984;5.650;2023-04-26T13:32:45;5.30;;;1.90;;
44822;SDS011;51097;51.984;5.650;2023-04-26T13:35:11;2.72;;;2.08;;
44822;SDS011;51097;51.984;5.650;2023-04-26T13:37:37;5.57;;;2.55;;
44822;SDS011;51097;51.984;5.650;2023-04-26T13:40:02;2.45;;;2.00;;
44822;SDS011;51097;51.984;5.650;2023-04-26T13:42:29;3.08;;;1.92;;
44822;SDS011;51097;51.984;5.650;2023-04-26T13:44:55;3.03;;;1.95;;
44822;SDS011;51097;51.984;5.650;2023-04-26T13:47:20;4.38;;;2.10;;
44822;SDS011;51097;51.984;5.650;2023-04-26T13:49:46;4.50;;;1.98;;
44822;SDS011;51097;51.984;5.650;2023-04-26T13:52:11;2.80;;;1.70;;
44822;SDS011;51097;51.984;5.650;2023-04-26T13:54:37;6.03;;;1.92;;
44822;SDS011;51097;51.984;5.650;2023-04-26T13:57:06;5.03;;;1.70;;
44822;SDS011;51097;51.984;5.650;2023-04-26T13:59:31;5.15;;;1.90;;
44822;SDS011;51097;51.984;5.650;2023-04-26T14:02:00;4.55;;;2.20;;
44822;SDS011;51097;51.984;5.650;2023-04-26T14:04:25;7.20;;;2.58;;
44822;SDS011;51097;51.984;5.650;2023-04-26T14:06:51;3.42;;;2.53;;
44822;SDS011;51097;51.984;5.650;2023-04-26T14:09:16;6.93;;;2.10;;
44822;SDS011;51097;51.984;5.650;2023-04-26T14:11:45;4.35;;;2.22;;
44822;SDS011;51097;51.984;5.650;2023-04-26T14:14:10;3.72;;;2.17;;
44822;SDS011;51097;51.984;5.650;2023-04-26T14:16:36;4.45;;;2.63;;
44822;SDS011;51097;51.984;5.650;2023-04-26T14:19:01;4.65;;;2.50;;
44822;SDS011;51097;51.984;5.650;2023-04-26T14:21:27;4.00;;;2.10;;
44822;SDS011;51097;51.984;5.650;2023-04-26T14:23:53;6.97;;;2.72;;
44822;SDS011;51097;51.984;5.650;2023-04-26T14:26:19;3.00;;;2.33;;
44822;SDS011;51097;51.984;5.650;2023-04-26T14:28:44;4.57;;;2.25;;
44822;SDS011;51097;51.984;5.650;2023-04-26T14:31:10;2.30;;;2.03;;
44822;SDS011;51097;51.984;5.650;2023-04-26T14:33:36;5.93;;;2.47;;
44822;SDS011;51097;51.984;5.650;2023-04-26T14:36:02;4.05;;;2.30;;
44822;SDS011;51097;51.984;5.650;2023-04-26T14:38:28;5.68;;;3.13;;
44822;SDS011;51097;51.984;5.650;2023-04-26T14:40:55;3.22;;;2.85;;
44822;SDS011;51097;51.984;5.650;2023-04-26T14:43:20;7.38;;;3.63;;
44822;SDS011;51097;51.984;5.650;2023-04-26T14:45:46;4.38;;;2.80;;
44822;SDS011;51097;51.984;5.650;2023-04-26T14:48:11;3.05;;;2.75;;
44822;SDS011;51097;51.984;5.650;2023-04-26T14:50:37;5.70;;;3.20;;
44822;SDS011;51097;51.984;5.650;2023-04-26T14:53:02;7.95;;;3.63;;
44822;SDS011;51097;51.984;5.650;2023-04-26T14:55:28;6.63;;;4.25;;
44822;SDS011;51097;51.984;5.650;2023-04-26T14:57:54;5.53;;;3.55;;
44822;SDS011;51097;51.984;5.650;2023-04-26T15:00:19;8.07;;;3.65;;
44822;SDS011;51097;51.984;5.650;2023-04-26T15:02:46;3.75;;;2.65;;
44822;SDS011;51097;51.984;5.650;2023-04-26T15:05:12;6.55;;;4.15;;
44822;SDS011;51097;51.984;5.650;2023-04-26T15:07:38;4.90;;;2.80;;
44822;SDS011;51097;51.984;5.650;2023-04-26T15:10:04;6.80;;;2.83;;
44822;SDS011;51097;51.984;5.650;2023-04-26T15:12:31;5.20;;;3.55;;